createdAt,value
2023-01-11T00:06:18.201Z,8.4
2023-01-11T00:35:38.859Z,8.5
2023-01-11T01:04:56.163Z,8.7
2023-01-11T01:34:15.212Z,8.8
2023-01-11T02:03:40.524Z,9
2023-01-11T02:33:08.171Z,9.2
2023-01-11T03:02:30.209Z,9.2
2023-01-11T03:31:47.436Z,9.3
2023-01-11T04:01:11.289Z,9.4
2023-01-11T04:30:28.928Z,9.6
2023-01-11T04:59:49.378Z,9.6
2023-01-11T05:29:12.885Z,9.7
2023-01-11T05:58:27.978Z,9.8
2023-01-11T06:27:45.259Z,9.9
2023-01-11T06:57:04.602Z,10
2023-01-11T07:26:23.230Z,10.1
2023-01-11T07:55:32.644Z,10.3
2023-01-11T08:24:54.989Z,10.6
2023-01-11T08:54:13.202Z,10.7
2023-01-11T09:23:35.737Z,11.1
2023-01-11T09:52:47.100Z,11.2
2023-01-11T10:22:05.451Z,11
2023-01-11T10:51:19.340Z,10.6
2023-01-11T11:20:41.890Z,10.4
2023-01-11T11:50:04.696Z,10.2
2023-01-11T12:19:28.649Z,10.2
2023-01-11T12:48:54.971Z,10.3
2023-01-11T13:18:18.363Z,10.3
2023-01-11T13:47:39.485Z,10.4
2023-01-11T14:16:58.395Z,10.4
2023-01-11T14:46:20.490Z,10.2
2023-01-11T15:15:31.573Z,10
2023-01-11T15:44:38.545Z,9.7
2023-01-11T16:13:42.761Z,9.4
2023-01-11T16:42:58.592Z,9.3
2023-01-11T17:12:15.709Z,9.2
2023-01-11T17:41:30.535Z,8.9
2023-01-11T18:10:38.776Z,8.6
2023-01-11T18:39:59.666Z,8.4
2023-01-11T19:09:19.266Z,8
2023-01-11T19:38:40.161Z,7.8
2023-01-11T20:08:00.120Z,7.9
2023-01-11T20:37:22.468Z,7.9
2023-01-11T21:06:17.055Z,7.9
2023-01-11T21:35:21.158Z,8
2023-01-11T22:04:35.592Z,7.8
2023-01-11T22:33:39.426Z,7.6
2023-01-11T23:02:59.828Z,7.6
2023-01-11T23:32:01.561Z,7.7
